createdAt,value
2022-10-20T00:00:19.509Z,12.35
2022-10-20T00:03:21.790Z,13.15
2022-10-20T00:06:26.609Z,12.70
2022-10-20T00:09:28.282Z,12.32
2022-10-20T00:12:30.155Z,12.73
2022-10-20T00:15:31.961Z,12.10
2022-10-20T00:18:34.801Z,12.80
2022-10-20T00:21:36.559Z,12.63
2022-10-20T00:24:38.367Z,12.35
2022-10-20T00:27:40.445Z,11.85
2022-10-20T00:30:42.440Z,11.30
2022-10-20T00:33:44.223Z,11.65
2022-10-20T00:36:50.324Z,11.52
2022-10-20T00:39:53.162Z,11.80
2022-10-20T00:42:54.900Z,11.80
2022-10-20T00:45:57.943Z,11.57
2022-10-20T00:49:06.432Z,12.07
2022-10-20T00:52:09.959Z,11.32
2022-10-20T00:55:15.796Z,12.13
2022-10-20T00:58:18.631Z,11.90
2022-10-20T01:01:20.649Z,12.32
2022-10-20T01:04:22.905Z,12.50
2022-10-20T01:07:24.662Z,12.73
2022-10-20T01:10:36.071Z,12.02
2022-10-20T01:14:02.476Z,12.55
2022-10-20T01:17:10.875Z,11.35
2022-10-20T01:20:36.188Z,11.65
2022-10-20T01:23:54.810Z,11.82
2022-10-20T01:27:32.433Z,11.05
2022-10-20T01:30:40.264Z,11.20
2022-10-20T01:33:55.191Z,11.25
2022-10-20T01:37:07.647Z,11.43
2022-10-20T01:40:41.042Z,11.32
2022-10-20T01:43:45.283Z,11.32
2022-10-20T01:46:48.036Z,12.07
2022-10-20T01:49:52.074Z,11.27
2022-10-20T01:52:58.253Z,10.85
2022-10-20T01:56:01.956Z,11.20
2022-10-20T01:59:37.881Z,11.85
2022-10-20T02:03:16.436Z,11.00
2022-10-20T02:06:43.071Z,11.63
2022-10-20T02:09:50.855Z,11.40
2022-10-20T02:12:58.428Z,12.07
2022-10-20T02:16:04.994Z,12.05
2022-10-20T02:19:08.696Z,11.57
2022-10-20T02:22:13.634Z,12.85
2022-10-20T02:25:15.813Z,11.95
2022-10-20T02:28:18.522Z,12.70
2022-10-20T02:31:21.470Z,13.05
2022-10-20T02:34:26.247Z,13.60
2022-10-20T02:37:28.027Z,13.57
2022-10-20T02:40:30.131Z,12.05
2022-10-20T02:43:31.872Z,12.90
2022-10-20T02:46:33.604Z,13.38
2022-10-20T02:49:35.605Z,12.57
2022-10-20T02:52:38.100Z,11.98
2022-10-20T02:55:40.001Z,13.20
2022-10-20T02:58:41.662Z,12.35
2022-10-20T03:01:44.412Z,12.25
2022-10-20T03:04:46.457Z,12.10
2022-10-20T03:07:48.309Z,12.68
2022-10-20T03:10:50.159Z,11.95
2022-10-20T03:13:52.222Z,12.43
2022-10-20T03:16:53.930Z,12.55
2022-10-20T03:19:55.878Z,12.57
2022-10-20T03:22:57.835Z,12.13
2022-10-20T03:26:07.548Z,12.43
2022-10-20T03:29:09.256Z,11.82
2022-10-20T03:32:11.093Z,11.98
2022-10-20T03:35:12.764Z,12.70
2022-10-20T03:38:14.752Z,11.93
2022-10-20T03:41:16.711Z,11.85
2022-10-20T03:44:18.528Z,12.77
2022-10-20T03:47:20.299Z,13.30
2022-10-20T03:50:22.509Z,13.57
2022-10-20T03:53:24.600Z,13.75
2022-10-20T03:56:26.328Z,14.40
2022-10-20T03:59:30.408Z,14.07
2022-10-20T04:02:39.113Z,13.10
2022-10-20T04:05:41.245Z,12.85
2022-10-20T04:08:42.987Z,13.18
2022-10-20T04:11:44.929Z,12.23
2022-10-20T04:14:47.700Z,12.45
2022-10-20T04:17:49.708Z,13.07
2022-10-20T04:20:51.452Z,12.82
2022-10-20T04:23:53.203Z,12.68
2022-10-20T04:26:55.210Z,13.25
2022-10-20T04:29:56.862Z,12.93
2022-10-20T04:32:58.649Z,13.80
2022-10-20T04:36:02.417Z,13.15
2022-10-20T04:39:06.703Z,13.73
2022-10-20T04:42:08.662Z,13.73
2022-10-20T04:45:10.677Z,12.75
2022-10-20T04:48:12.376Z,13.77
2022-10-20T04:51:16.071Z,13.48
2022-10-20T04:54:17.861Z,13.48
2022-10-20T04:57:19.684Z,13.18
2022-10-20T05:00:21.383Z,13.55
2022-10-20T05:03:23.329Z,12.98
2022-10-20T05:06:28.123Z,13.70
2022-10-20T05:09:30.025Z,13.32
2022-10-20T05:12:32.038Z,13.70
2022-10-20T05:15:33.823Z,13.25
2022-10-20T05:18:36.376Z,13.15
2022-10-20T05:21:38.698Z,12.87
2022-10-20T05:24:40.427Z,13.95
2022-10-20T05:27:42.125Z,14.07
2022-10-20T05:30:44.017Z,13.95
2022-10-20T05:33:51.655Z,13.02
2022-10-20T05:36:54.428Z,13.50
2022-10-20T05:39:56.117Z,14.15
2022-10-20T05:42:58.101Z,13.50
2022-10-20T05:45:59.819Z,13.98
2022-10-20T05:49:03.391Z,13.50
2022-10-20T05:52:05.771Z,13.70
2022-10-20T05:55:08.555Z,13.10
2022-10-20T05:58:10.324Z,13.88
2022-10-20T06:01:25.805Z,14.60
2022-10-20T06:04:30.769Z,13.70
2022-10-20T06:07:32.699Z,15.27
2022-10-20T06:10:34.398Z,13.85
2022-10-20T06:13:36.855Z,14.50
2022-10-20T06:16:39.069Z,15.70
2022-10-20T06:19:40.848Z,15.60
2022-10-20T06:22:42.770Z,16.15
2022-10-20T06:25:44.496Z,15.45
2022-10-20T06:28:48.779Z,15.23
2022-10-20T06:31:51.732Z,15.88
2022-10-20T06:34:54.208Z,14.82
2022-10-20T06:37:56.261Z,14.80
2022-10-20T06:41:01.585Z,15.13
2022-10-20T06:44:03.837Z,16.17
2022-10-20T06:47:10.089Z,16.23
2022-10-20T06:50:12.286Z,17.10
2022-10-20T06:53:14.460Z,16.20
2022-10-20T06:56:18.739Z,17.10
2022-10-20T06:59:20.553Z,15.00
2022-10-20T07:02:22.184Z,16.05
2022-10-20T07:05:24.133Z,15.88
2022-10-20T07:08:29.032Z,16.83
2022-10-20T07:11:34.968Z,16.73
2022-10-20T07:14:37.461Z,15.93
2022-10-20T07:17:39.259Z,14.97
2022-10-20T07:20:41.224Z,16.17
2022-10-20T07:23:43.616Z,15.63
2022-10-20T07:26:45.399Z,14.65
2022-10-20T07:29:47.104Z,14.50
2022-10-20T07:32:48.817Z,15.98
2022-10-20T07:35:50.496Z,15.45
2022-10-20T07:38:57.097Z,16.50
2022-10-20T07:41:58.819Z,15.48
2022-10-20T07:45:00.462Z,16.48
2022-10-20T07:48:04.233Z,16.05
2022-10-20T07:51:16.798Z,16.17
2022-10-20T07:54:18.519Z,16.70
2022-10-20T07:57:20.197Z,15.93
2022-10-20T08:00:21.943Z,16.13
2022-10-20T08:03:23.623Z,17.00
2022-10-20T08:06:26.038Z,16.20
2022-10-20T08:09:28.012Z,17.38
2022-10-20T08:12:30.015Z,16.17
2022-10-20T08:15:31.696Z,16.48
2022-10-20T08:18:34.789Z,16.20
2022-10-20T08:21:36.497Z,16.13
2022-10-20T08:24:38.228Z,16.75
2022-10-20T08:27:39.887Z,15.93
2022-10-20T08:30:41.589Z,16.40
2022-10-20T08:33:43.919Z,16.52
2022-10-20T08:36:45.769Z,16.33
2022-10-20T08:39:47.437Z,16.42
2022-10-20T08:42:50.191Z,15.95
2022-10-20T08:45:51.972Z,17.95
2022-10-20T08:48:54.030Z,17.27
2022-10-20T08:51:55.884Z,18.45
2022-10-20T08:54:58.270Z,17.98
2022-10-20T08:58:12.023Z,19.13
2022-10-20T09:04:41.176Z,16.42
2022-10-20T09:07:43.351Z,15.30
2022-10-20T09:10:49.203Z,15.20
2022-10-20T09:13:51.243Z,14.68
2022-10-20T09:17:00.106Z,13.55
2022-10-20T09:20:04.108Z,11.43
2022-10-20T09:23:16.465Z,11.55
2022-10-20T09:26:54.309Z,11.93
2022-10-20T09:29:54.353Z,11.85
2022-10-20T09:32:56.129Z,10.98
2022-10-20T09:36:16.175Z,11.13
2022-10-20T09:39:23.717Z,9.75
2022-10-20T09:42:27.462Z,11.18
2022-10-20T09:45:32.867Z,11.10
2022-10-20T09:48:47.937Z,10.10
2022-10-20T09:51:50.080Z,11.18
2022-10-20T09:54:57.120Z,10.77
2022-10-20T09:58:01.551Z,10.85
2022-10-20T10:01:06.850Z,11.50
2022-10-20T10:04:36.150Z,10.40
2022-10-20T10:07:37.958Z,11.02
2022-10-20T10:10:40.008Z,11.27
2022-10-20T10:14:00.809Z,10.55
2022-10-20T10:17:03.116Z,9.85
2022-10-20T10:20:11.259Z,10.35
2022-10-20T10:23:22.159Z,10.40
2022-10-20T10:26:42.717Z,10.55
2022-10-20T10:29:44.373Z,11.38
2022-10-20T10:32:47.891Z,11.13
2022-10-20T10:35:50.138Z,11.65
2022-10-20T10:38:52.017Z,10.95
2022-10-20T10:42:09.551Z,12.10
2022-10-20T10:45:51.966Z,11.65
2022-10-20T10:49:18.472Z,12.10
2022-10-20T10:52:47.554Z,11.13
2022-10-20T10:55:52.563Z,11.65
2022-10-20T10:59:10.358Z,12.15
2022-10-20T11:02:33.416Z,11.88
2022-10-20T11:05:51.388Z,12.55
2022-10-20T11:08:59.323Z,12.60
2022-10-20T11:12:21.771Z,12.80
2022-10-20T11:15:54.502Z,13.55
2022-10-20T11:19:14.565Z,12.38
2022-10-20T11:22:44.059Z,13.60
2022-10-20T11:25:57.321Z,12.27
2022-10-20T11:29:00.803Z,12.70
2022-10-20T11:35:31.578Z,13.98
2022-10-20T11:38:44.771Z,13.15
2022-10-20T11:41:56.349Z,13.00
2022-10-20T11:45:01.734Z,12.77
2022-10-20T11:48:21.518Z,11.82
2022-10-20T11:51:32.778Z,10.07
2022-10-20T11:54:41.661Z,9.88
2022-10-20T11:58:10.783Z,10.00
2022-10-20T12:01:21.613Z,8.98
2022-10-20T12:04:32.213Z,8.55
2022-10-20T12:08:17.405Z,8.02
2022-10-20T12:11:48.033Z,8.25
2022-10-20T12:14:58.629Z,7.57
2022-10-20T12:18:05.634Z,6.95
2022-10-20T12:21:10.447Z,8.30
2022-10-20T12:24:38.820Z,7.32
2022-10-20T12:27:40.687Z,6.82
2022-10-20T12:30:44.441Z,7.53
2022-10-20T12:33:56.522Z,6.15
2022-10-20T12:37:08.091Z,6.28
2022-10-20T12:40:10.088Z,7.10
2022-10-20T12:43:30.853Z,6.50
2022-10-20T12:46:35.486Z,6.10
2022-10-20T12:49:50.048Z,5.82
2022-10-20T12:52:51.962Z,6.32
2022-10-20T12:56:04.750Z,5.60
2022-10-20T12:59:29.762Z,5.60
2022-10-20T13:02:33.840Z,5.07
2022-10-20T13:05:44.526Z,5.38
2022-10-20T13:09:07.017Z,5.60
2022-10-20T13:12:26.434Z,5.13
2022-10-20T13:15:43.713Z,4.70
2022-10-20T13:18:49.791Z,4.80
2022-10-20T13:21:52.186Z,4.78
2022-10-20T13:24:56.656Z,4.40
2022-10-20T13:28:29.336Z,4.78
2022-10-20T13:31:47.642Z,4.75
2022-10-20T13:35:06.927Z,4.40
2022-10-20T13:38:22.331Z,4.50
2022-10-20T13:41:45.747Z,4.50
2022-10-20T13:45:20.284Z,3.88
2022-10-20T13:48:40.633Z,4.05
2022-10-20T13:51:51.189Z,4.10
2022-10-20T13:54:53.135Z,3.42
2022-10-20T13:57:58.219Z,3.78
2022-10-20T14:01:03.037Z,3.65
2022-10-20T14:04:33.863Z,4.13
2022-10-20T14:07:40.640Z,3.42
2022-10-20T14:10:48.990Z,4.20
2022-10-20T14:13:51.563Z,3.67
2022-10-20T14:16:59.287Z,3.63
2022-10-20T14:20:22.267Z,3.85
2022-10-20T14:23:25.224Z,4.00
2022-10-20T14:26:28.643Z,3.33
2022-10-20T14:32:40.285Z,3.13
2022-10-20T14:35:50.625Z,3.40
2022-10-20T14:38:55.819Z,4.10
2022-10-20T14:42:02.096Z,7.82
2022-10-20T14:45:04.437Z,3.65
2022-10-20T14:48:09.596Z,3.90
2022-10-20T14:51:36.364Z,3.60
2022-10-20T14:54:39.525Z,3.60
2022-10-20T14:57:47.769Z,3.78
2022-10-20T15:00:49.536Z,4.53
2022-10-20T15:07:34.647Z,3.75
2022-10-20T15:10:37.946Z,3.40
2022-10-20T15:13:40.045Z,4.00
2022-10-20T15:16:45.223Z,3.33
2022-10-20T15:19:46.964Z,3.60
2022-10-20T15:22:50.268Z,3.35
2022-10-20T15:26:12.804Z,3.22
2022-10-20T15:29:14.536Z,3.30
2022-10-20T15:32:17.153Z,3.53
2022-10-20T15:35:22.367Z,2.83
2022-10-20T15:38:24.115Z,3.13
2022-10-20T15:41:31.366Z,3.50
2022-10-20T15:44:33.325Z,3.10
2022-10-20T15:47:35.261Z,3.13
2022-10-20T15:50:39.023Z,3.40
2022-10-20T15:53:41.021Z,3.55
2022-10-20T15:56:43.383Z,4.28
2022-10-20T15:59:45.039Z,3.60
2022-10-20T16:02:47.267Z,3.60
2022-10-20T16:05:49.213Z,3.42
2022-10-20T16:08:51.869Z,3.80
2022-10-20T16:11:53.876Z,4.20
2022-10-20T16:14:55.783Z,3.53
2022-10-20T16:17:57.568Z,4.20
2022-10-20T16:21:00.138Z,3.85
2022-10-20T16:24:02.078Z,5.00
2022-10-20T16:27:05.809Z,4.35
2022-10-20T16:30:08.485Z,4.25
2022-10-20T16:33:10.282Z,4.20
2022-10-20T16:36:14.856Z,4.43
2022-10-20T16:39:17.492Z,4.63
2022-10-20T16:42:19.214Z,4.10
2022-10-20T16:45:20.924Z,5.65
2022-10-20T16:48:23.284Z,4.63
2022-10-20T16:51:25.805Z,5.35
2022-10-20T16:54:27.817Z,4.47
2022-10-20T16:57:32.237Z,5.25
2022-10-20T17:00:34.137Z,4.80
2022-10-20T17:03:37.120Z,4.85
2022-10-20T17:06:39.222Z,5.55
2022-10-20T17:09:41.247Z,5.60
2022-10-20T17:12:46.383Z,5.40
2022-10-20T17:15:48.324Z,5.47
2022-10-20T17:18:50.035Z,5.57
2022-10-20T17:22:19.320Z,5.57
2022-10-20T17:25:28.830Z,5.25
2022-10-20T17:28:32.919Z,5.25
2022-10-20T17:31:34.982Z,5.45
2022-10-20T17:34:36.670Z,5.80
2022-10-20T17:37:47.751Z,4.63
2022-10-20T17:40:50.080Z,5.93
2022-10-20T17:43:51.925Z,5.55
2022-10-20T17:46:53.700Z,5.10
2022-10-20T17:49:56.337Z,7.40
2022-10-20T17:53:01.348Z,5.72
2022-10-20T17:56:09.762Z,6.45
2022-10-20T18:02:13.423Z,6.40
2022-10-20T18:05:15.566Z,6.22
2022-10-20T18:08:17.399Z,5.50
2022-10-20T18:11:21.789Z,5.93
2022-10-20T18:14:23.907Z,6.47
2022-10-20T18:17:25.943Z,6.00
2022-10-20T18:20:30.903Z,6.95
2022-10-20T18:23:36.962Z,5.85
2022-10-20T18:26:39.373Z,5.80
2022-10-20T18:29:41.166Z,5.55
2022-10-20T18:32:43.007Z,6.07
2022-10-20T18:35:45.152Z,5.95
2022-10-20T18:38:47.414Z,6.00
2022-10-20T18:41:52.130Z,5.70
2022-10-20T18:44:53.958Z,6.00
2022-10-20T18:47:55.726Z,5.15
2022-10-20T18:50:59.783Z,5.70
2022-10-20T18:54:01.988Z,5.93
2022-10-20T18:57:04.488Z,5.85
2022-10-20T19:00:11.365Z,5.93
2022-10-20T19:03:13.153Z,5.90
2022-10-20T19:06:39.737Z,6.55
2022-10-20T19:09:41.466Z,5.60
2022-10-20T19:12:43.414Z,5.80
2022-10-20T19:15:45.721Z,5.60
2022-10-20T19:18:53.060Z,5.57
2022-10-20T19:21:54.839Z,5.63
2022-10-20T19:24:56.846Z,5.70
2022-10-20T19:27:59.382Z,6.20
2022-10-20T19:31:01.381Z,6.77
2022-10-20T19:34:15.523Z,5.88
2022-10-20T19:37:17.233Z,6.43
2022-10-20T19:40:18.906Z,6.53
2022-10-20T19:43:20.585Z,6.05
2022-10-20T19:46:22.760Z,6.45
2022-10-20T19:49:24.931Z,6.30
2022-10-20T19:52:26.947Z,6.10
2022-10-20T19:55:29.501Z,6.15
2022-10-20T19:58:31.234Z,6.37
2022-10-20T20:01:34.186Z,6.05
2022-10-20T20:04:36.151Z,6.05
2022-10-20T20:07:38.267Z,6.18
2022-10-20T20:10:40.627Z,6.20
2022-10-20T20:13:42.978Z,7.03
2022-10-20T20:16:46.040Z,6.53
2022-10-20T20:19:48.819Z,6.45
2022-10-20T20:22:50.839Z,6.47
2022-10-20T20:25:52.718Z,6.55
2022-10-20T20:28:55.961Z,6.15
2022-10-20T20:31:57.822Z,6.28
2022-10-20T20:34:59.634Z,6.63
2022-10-20T20:38:01.447Z,6.05
2022-10-20T20:41:06.293Z,6.47
2022-10-20T20:44:08.745Z,7.07
2022-10-20T20:47:11.460Z,6.63
2022-10-20T20:50:13.670Z,6.73
2022-10-20T20:53:15.358Z,7.10
2022-10-20T20:56:20.587Z,7.18
2022-10-20T20:59:24.802Z,6.63
2022-10-20T21:02:26.577Z,7.32
2022-10-20T21:05:28.261Z,7.55
2022-10-20T21:08:32.231Z,7.05
2022-10-20T21:11:34.096Z,7.43
2022-10-20T21:14:37.089Z,7.25
2022-10-20T21:17:38.763Z,6.80
2022-10-20T21:20:40.475Z,8.00
2022-10-20T21:23:42.501Z,7.15
2022-10-20T21:26:44.577Z,7.22
2022-10-20T21:29:48.453Z,7.72
2022-10-20T21:32:50.183Z,7.22
2022-10-20T21:35:52.111Z,7.00
2022-10-20T21:38:54.171Z,7.88
2022-10-20T21:41:56.183Z,7.40
2022-10-20T21:44:58.088Z,7.75
2022-10-20T21:48:00.017Z,8.20
2022-10-20T21:51:13.657Z,7.40
2022-10-20T21:57:18.708Z,7.57
2022-10-20T22:00:21.927Z,7.07
2022-10-20T22:03:25.858Z,7.20
2022-10-20T22:06:28.456Z,6.90
2022-10-20T22:09:30.301Z,6.60
2022-10-20T22:12:32.649Z,5.35
2022-10-20T22:15:39.580Z,4.82
2022-10-20T22:18:41.528Z,3.78
2022-10-20T22:21:45.755Z,3.88
2022-10-20T22:24:47.905Z,4.15
2022-10-20T22:27:49.609Z,3.67
2022-10-20T22:30:51.386Z,4.13
2022-10-20T22:33:55.494Z,4.15
2022-10-20T22:36:57.632Z,4.25
2022-10-20T22:39:59.662Z,3.60
2022-10-20T22:43:01.373Z,3.63
2022-10-20T22:46:03.333Z,4.03
2022-10-20T22:49:05.206Z,3.65
2022-10-20T22:52:07.072Z,3.75
2022-10-20T22:55:08.927Z,3.95
2022-10-20T22:58:10.752Z,4.07
2022-10-20T23:01:15.589Z,4.68
2022-10-20T23:04:17.345Z,4.40
2022-10-20T23:07:19.054Z,4.53
2022-10-20T23:10:20.763Z,4.50
2022-10-20T23:13:22.929Z,4.38
2022-10-20T23:16:27.800Z,3.95
2022-10-20T23:19:29.668Z,3.95
2022-10-20T23:22:31.459Z,4.30
2022-10-20T23:25:33.254Z,3.50
2022-10-20T23:28:35.975Z,3.92
2022-10-20T23:31:37.719Z,3.70
2022-10-20T23:34:39.668Z,3.15
2022-10-20T23:37:41.398Z,3.50
2022-10-20T23:40:43.285Z,2.78
2022-10-20T23:43:45.054Z,2.92
2022-10-20T23:46:46.744Z,3.30
2022-10-20T23:49:48.413Z,2.53
2022-10-20T23:52:51.109Z,2.35
2022-10-20T23:55:53.113Z,1.90
2022-10-20T23:58:54.850Z,2.70
